Time;durP1;ratioP1;P1;durP2;ratioP2;P2;SDS_P1;SDS_P2;PMS_P1;PMS_P2;Temp;Humidity;BMP_temperature;BMP_pressure;BME280_temperature;BME280_humidity;BME280_pressure;Samples;Min_cycle;Max_cycle;Signal;HPM_P1;HPM_P2
2022/12/18 00:02:13;;;;;;;54.57;35.37;;;;;;;11.23;100.00;100082.66;4994864;28;20195;-71
2022/12/18 00:04:40;;;;;;;51.23;34.27;;;;;;;11.27;100.00;100083.94;4994695;28;20191;-71
2022/12/18 00:07:06;;;;;;;46.87;33.60;;;;;;;11.31;100.00;100090.53;4994552;28;20663;-71
2022/12/18 00:09:33;;;;;;;51.80;35.83;;;;;;;11.30;100.00;100094.22;4994307;28;20726;-72
2022/12/18 00:12:01;;;;;;;49.17;33.73;;;;;;;11.26;100.00;100106.22;4994436;28;20199;-72
2022/12/18 00:14:28;;;;;;;52.47;35.63;;;;;;;11.25;100.00;100101.94;4994258;28;20261;-71
2022/12/18 00:16:55;;;;;;;90.47;51.50;;;;;;;11.24;100.00;100124.22;4995435;28;20199;-71
2022/12/18 00:19:21;;;;;;;75.27;46.97;;;;;;;11.24;100.00;100137.50;4993980;28;20206;-70
2022/12/18 00:21:48;;;;;;;60.03;37.80;;;;;;;11.17;100.00;100136.59;4994212;28;20659;-70
2022/12/18 00:24:15;;;;;;;58.90;37.33;;;;;;;11.10;100.00;100135.66;4994007;28;20196;-71
2022/12/18 00:26:41;;;;;;;55.80;37.90;;;;;;;11.12;100.00;100138.97;4994573;28;20227;-71
2022/12/18 00:29:14;;;;;;;60.60;38.13;;;;;;;11.11;100.00;100136.50;4994027;28;20733;-71
2022/12/18 00:31:41;;;;;;;56.40;37.00;;;;;;;11.14;100.00;100136.94;4994115;28;20282;-70
2022/12/18 00:34:11;;;;;;;53.67;32.87;;;;;;;11.12;100.00;100136.31;4994343;28;20257;-71
2022/12/18 00:36:38;;;;;;;53.33;33.87;;;;;;;11.14;100.00;100146.78;4994114;28;20199;-70
2022/12/18 00:39:06;;;;;;;53.20;33.63;;;;;;;11.10;100.00;100145.50;4995013;28;20199;-70
2022/12/18 00:44:19;;;;;;;47.60;32.43;;;;;;;10.96;100.00;100166.56;4994502;28;20204;-70
2022/12/18 00:46:46;;;;;;;45.63;32.53;;;;;;;10.90;100.00;100158.47;4993933;28;20223;-70
2022/12/18 00:49:14;;;;;;;44.03;32.30;;;;;;;10.94;100.00;100173.06;4994296;28;20190;-70
2022/12/18 00:51:41;;;;;;;40.03;29.97;;;;;;;10.96;100.00;100171.06;4993585;28;20667;-71
2022/12/18 00:54:08;;;;;;;39.33;30.30;;;;;;;10.96;100.00;100181.69;4994753;28;20258;-71
2022/12/18 00:56:36;;;;;;;45.20;30.80;;;;;;;10.98;100.00;100187.63;4993941;28;20207;-72
2022/12/18 00:59:03;;;;;;;42.33;30.80;;;;;;;10.97;100.00;100183.34;4993509;28;20691;-72
2022/12/18 01:01:32;;;;;;;45.60;30.87;;;;;;;10.96;100.00;100181.69;4993702;28;20257;-72
2022/12/18 01:03:59;;;;;;;46.20;30.77;;;;;;;10.96;100.00;100171.06;4993387;28;20199;-72
2022/12/18 01:06:25;;;;;;;42.83;30.53;;;;;;;10.97;100.00;100167.38;4993564;28;20223;-72
2022/12/18 01:08:52;;;;;;;44.83;31.17;;;;;;;10.96;100.00;100171.06;4993279;28;20671;-72
2022/12/18 01:11:21;;;;;;;43.20;31.87;;;;;;;10.90;100.00;100177.91;4993215;28;20203;-72
2022/12/18 01:13:48;;;;;;;44.33;29.67;;;;;;;10.87;100.00;100174.81;4993590;28;20195;-72
2022/12/18 01:16:16;;;;;;;40.53;29.67;;;;;;;10.82;100.00;100175.34;4993171;28;20202;-72
2022/12/18 01:18:45;;;;;;;44.40;30.77;;;;;;;10.89;100.00;100170.97;4993179;28;20194;-72
2022/12/18 01:21:13;;;;;;;42.63;30.10;;;;;;;10.96;100.00;100173.72;4993474;28;20300;-71
2022/12/18 01:23:40;;;;;;;47.20;32.13;;;;;;;10.91;100.00;100168.94;4993061;28;20191;-72
2022/12/18 01:26:08;;;;;;;46.70;31.93;;;;;;;10.87;100.00;100172.16;4993159;28;20214;-71
2022/12/18 01:28:35;;;;;;;61.63;37.93;;;;;;;10.84;100.00;100172.50;4993045;28;20322;-71
2022/12/18 01:31:14;;;;;;;105.80;51.93;;;;;;;10.78;100.00;100170.56;4993124;28;20251;-70
2022/12/18 01:33:41;;;;;;;84.30;43.60;;;;;;;10.75;100.00;100160.31;4993038;28;20253;-71
2022/12/18 01:36:15;;;;;;;60.33;37.43;;;;;;;10.76;100.00;100165.44;4992851;28;20257;-70
2022/12/18 01:38:41;;;;;;;47.27;31.67;;;;;;;10.78;100.00;100162.59;4992922;28;20195;-70
2022/12/18 01:41:09;;;;;;;50.93;35.43;;;;;;;10.80;100.00;100165.91;4993003;28;20245;-71
2022/12/18 01:43:48;;;;;;;49.30;33.70;;;;;;;10.82;100.00;100159.41;4993390;28;20190;-70
2022/12/18 01:46:15;;;;;;;48.07;31.70;;;;;;;10.81;100.00;100167.53;4992646;28;20695;-70
2022/12/18 01:48:43;;;;;;;50.40;33.53;;;;;;;10.82;100.00;100174.50;4992702;28;20828;-70
2022/12/18 01:51:12;;;;;;;72.23;38.90;;;;;;;10.82;100.00;100172.69;4993362;28;20194;-69
2022/12/18 01:53:42;;;;;;;58.43;36.30;;;;;;;10.80;100.00;100177.38;4993017;28;20207;-69
2022/12/18 01:56:13;;;;;;;53.30;32.53;;;;;;;10.81;100.00;100170.19;4992865;28;20256;-71
2022/12/18 01:58:47;;;;;;;48.60;31.97;;;;;;;10.76;100.00;100162.78;4993736;28;20198;-71
2022/12/18 02:01:14;;;;;;;44.63;30.43;;;;;;;10.76;100.00;100167.28;4993002;28;20198;-71
2022/12/18 02:03:42;;;;;;;38.10;27.67;;;;;;;10.73;100.00;100171.13;4992866;28;20198;-71
2022/12/18 02:06:17;;;;;;;37.07;26.90;;;;;;;10.74;100.00;100177.22;4992668;28;20229;-72
2022/12/18 02:08:55;;;;;;;34.87;26.70;;;;;;;10.78;100.00;100181.19;4992968;28;20181;-71
2022/12/18 02:11:33;;;;;;;33.43;23.73;;;;;;;10.70;100.00;100176.78;4992451;28;20195;-70
2022/12/18 02:14:08;;;;;;;33.00;23.47;;;;;;;10.76;100.00;100185.88;4993178;28;20245;-71
2022/12/18 02:16:44;;;;;;;30.57;22.10;;;;;;;10.82;100.00;100191.28;4992388;28;20194;-70
2022/12/18 02:19:21;;;;;;;26.60;20.73;;;;;;;10.86;100.00;100186.44;4992471;28;20551;-70
2022/12/18 02:21:57;;;;;;;28.40;21.73;;;;;;;10.90;100.00;100195.69;4992406;28;20186;-71
2022/12/18 02:24:34;;;;;;;28.60;19.53;;;;;;;10.90;100.00;100188.56;4996981;28;20202;-71
2022/12/18 02:27:06;;;;;;;26.10;19.70;;;;;;;10.84;100.00;100199.91;4996531;28;20285;-72
2022/12/18 02:29:37;;;;;;;22.87;19.43;;;;;;;10.87;100.00;100204.03;4996323;28;20190;-71
2022/12/18 02:32:11;;;;;;;26.30;20.10;;;;;;;10.90;100.00;100193.03;4997005;28;20268;-71
2022/12/18 02:34:39;;;;;;;29.00;20.53;;;;;;;10.94;100.00;100200.47;4996239;28;20187;-71
2022/12/18 02:37:11;;;;;;;26.73;19.90;;;;;;;10.98;100.00;100200.94;4996398;28;20257;-71
2022/12/18 02:39:42;;;;;;;24.87;18.80;;;;;;;11.02;100.00;100193.44;4996172;28;20244;-72
2022/12/18 02:42:12;;;;;;;27.33;20.57;;;;;;;11.06;100.00;100187.56;4996068;28;20241;-71
2022/12/18 02:44:44;;;;;;;25.73;18.03;;;;;;;11.07;100.00;100197.19;4996948;28;20188;-70
2022/12/18 02:47:12;;;;;;;22.87;18.50;;;;;;;11.09;100.00;100189.84;4996350;28;20301;-71
2022/12/18 02:49:50;;;;;;;26.93;18.90;;;;;;;11.11;100.00;100182.50;4995944;28;20381;-71
2022/12/18 02:52:28;;;;;;;24.23;18.80;;;;;;;11.10;100.00;100185.38;4995870;28;20193;-71
2022/12/18 02:55:01;;;;;;;23.30;18.33;;;;;;;11.10;100.00;100183.53;4996368;28;20190;-72
2022/12/18 02:57:36;;;;;;;22.20;18.13;;;;;;;11.08;100.00;100190.88;4995807;28;20663;-71
2022/12/18 03:00:07;;;;;;;21.37;17.27;;;;;;;11.09;100.00;100192.50;4996420;28;20281;-71
2022/12/18 03:02:40;;;;;;;28.33;20.03;;;;;;;11.10;100.00;100190.69;4996215;28;20201;-71
2022/12/18 03:05:14;;;;;;;25.90;18.77;;;;;;;11.14;100.00;100195.44;4996193;28;20270;-71
2022/12/18 03:07:46;;;;;;;19.93;16.97;;;;;;;11.16;100.00;100201.44;4995806;28;20285;-71
2022/12/18 03:10:16;;;;;;;31.10;20.10;;;;;;;11.18;100.00;100202.06;4995899;28;20195;-71
2022/12/18 03:12:49;;;;;;;27.73;19.57;;;;;;;11.19;100.00;100195.72;4995400;28;20199;-70
2022/12/18 03:15:21;;;;;;;22.90;18.53;;;;;;;11.18;100.00;100202.06;4995847;28;20258;-70
2022/12/18 03:17:56;;;;;;;27.23;19.07;;;;;;;11.19;100.00;100205.56;4995813;28;20259;-70
2022/12/18 03:20:25;;;;;;;27.83;19.00;;;;;;;11.15;100.00;100206.91;4995544;28;20226;-71
2022/12/18 03:22:58;;;;;;;21.83;17.33;;;;;;;11.16;100.00;100209.41;4995565;28;20194;-71
2022/12/18 03:25:26;;;;;;;24.63;18.60;;;;;;;11.17;100.00;100211.03;4995170;28;20188;-72
2022/12/18 03:27:59;;;;;;;27.67;17.77;;;;;;;11.15;100.00;100215.69;4995481;28;20231;-72
2022/12/18 03:30:29;;;;;;;27.73;19.20;;;;;;;11.12;100.00;100216.09;4995576;28;20191;-71
2022/12/18 03:33:03;;;;;;;24.60;18.30;;;;;;;11.08;100.00;100220.13;4995233;28;20199;-71
2022/12/18 03:35:33;;;;;;;23.80;18.20;;;;;;;11.06;100.00;100221.31;4995213;28;20729;-71
2022/12/18 03:38:00;;;;;;;24.37;16.83;;;;;;;10.95;100.00;100219.91;4995551;28;20191;-70
2022/12/18 03:40:36;;;;;;;22.97;17.03;;;;;;;10.95;100.00;100227.88;4995880;28;20195;-72
2022/12/18 03:43:11;;;;;;;23.20;17.23;;;;;;;10.96;100.00;100229.53;4994616;28;20203;-71
2022/12/18 03:45:42;;;;;;;20.07;15.27;;;;;;;10.97;100.00;100239.16;4995852;28;20261;-69
2022/12/18 03:48:16;;;;;;;19.53;16.23;;;;;;;10.93;100.00;100246.69;4975362;28;20644;-70
2022/12/18 03:50:49;;;;;;;21.50;16.50;;;;;;;10.97;100.00;100247.13;4975382;28;20239;-70
2022/12/18 03:53:28;;;;;;;22.93;16.57;;;;;;;10.98;100.00;100259.41;4975303;28;20187;-70
2022/12/18 03:55:56;;;;;;;17.93;15.93;;;;;;;10.68;100.00;100263.00;4976206;28;20262;-70
2022/12/18 03:58:27;;;;;;;22.70;16.77;;;;;;;10.53;100.00;100262.09;4975683;28;20198;-71
2022/12/18 04:00:57;;;;;;;25.50;17.03;;;;;;;10.47;100.00;100265.47;4975718;28;20193;-71
2022/12/18 04:03:26;;;;;;;25.83;15.80;;;;;;;10.60;100.00;100265.72;4975119;28;20236;-70
2022/12/18 04:05:55;;;;;;;24.33;16.57;;;;;;;10.49;100.00;100264.28;4975059;28;20195;-71
2022/12/18 04:08:24;;;;;;;19.27;16.03;;;;;;;10.51;100.00;100267.59;4977658;28;20202;-70
2022/12/18 04:10:50;;;;;;;17.00;14.07;;;;;;;10.54;100.00;100271.75;4994514;28;20659;-70
2022/12/18 04:13:23;;;;;;;20.93;14.23;;;;;;;10.51;100.00;100280.88;4994699;28;20195;-70
2022/12/18 04:15:51;;;;;;;27.23;16.60;;;;;;;10.54;100.00;100285.84;4994428;28;20240;-70
2022/12/18 04:18:17;;;;;;;18.43;15.60;;;;;;;10.50;100.00;100278.41;4994533;28;20191;-70
2022/12/18 04:20:44;;;;;;;21.50;16.77;;;;;;;10.54;100.00;100279.72;4994699;28;20233;-70
2022/12/18 04:23:11;;;;;;;19.10;14.80;;;;;;;10.50;100.00;100275.75;4994172;28;20729;-70
2022/12/18 04:25:37;;;;;;;18.80;14.90;;;;;;;10.59;100.00;100280.00;4994355;28;20191;-71
2022/12/18 04:28:04;;;;;;;17.40;13.90;;;;;;;10.55;100.00;100284.00;4994574;28;20222;-70
2022/12/18 04:30:31;;;;;;;16.10;12.87;;;;;;;10.58;100.00;100291.63;4994048;28;20198;-70
2022/12/18 04:32:59;;;;;;;13.17;11.60;;;;;;;10.52;100.00;100289.66;4994263;28;20194;-70
2022/12/18 04:35:26;;;;;;;17.53;13.27;;;;;;;10.52;100.00;100294.97;4993930;28;20730;-70
2022/12/18 04:37:53;;;;;;;11.47;10.30;;;;;;;10.49;100.00;100290.00;4994205;28;20202;-70
2022/12/18 04:40:19;;;;;;;11.10;9.83;;;;;;;10.38;100.00;100298.41;4994515;28;20200;-70
2022/12/18 04:42:46;;;;;;;10.53;9.53;;;;;;;10.33;100.00;100285.63;4993797;28;20698;-70
2022/12/18 04:45:13;;;;;;;10.77;9.77;;;;;;;10.36;100.00;100292.44;4993762;28;20273;-69
2022/12/18 04:47:40;;;;;;;9.57;8.67;;;;;;;10.40;100.00;100307.00;4993614;28;20257;-70
2022/12/18 04:50:09;;;;;;;10.80;8.60;;;;;;;10.19;100.00;100309.44;4994626;28;20198;-70
2022/12/18 04:52:36;;;;;;;9.57;8.60;;;;;;;10.13;100.00;100310.97;4993576;28;20249;-70
2022/12/18 04:55:03;;;;;;;9.30;8.40;;;;;;;10.05;100.00;100318.97;4993594;28;20194;-70
2022/12/18 04:57:29;;;;;;;8.70;8.00;;;;;;;10.00;100.00;100325.75;4994525;28;20230;-70
2022/12/18 04:59:56;;;;;;;10.73;8.40;;;;;;;9.95;100.00;100339.56;4993560;28;20249;-70
2022/12/18 05:02:23;;;;;;;7.63;7.00;;;;;;;9.83;100.00;100340.09;4993856;28;20206;-71
2022/12/18 05:04:49;;;;;;;8.80;8.00;;;;;;;9.83;100.00;100337.44;4994555;28;20257;-70
2022/12/18 05:07:17;;;;;;;7.80;7.20;;;;;;;9.87;100.00;100350.19;4993263;28;20222;-72
2022/12/18 05:09:44;;;;;;;8.07;7.20;;;;;;;9.79;100.00;100336.13;4993207;28;20674;-70
2022/12/18 05:12:11;;;;;;;7.77;7.13;;;;;;;9.77;100.00;100346.09;4993548;28;20261;-70
2022/12/18 05:14:37;;;;;;;7.43;6.83;;;;;;;9.83;100.00;100350.69;4993460;28;20198;-70
2022/12/18 05:17:04;;;;;;;7.77;6.97;;;;;;;9.89;100.00;100355.34;4993534;28;20198;-70
2022/12/18 05:19:31;;;;;;;8.47;7.67;;;;;;;9.98;100.00;100364.94;4993259;28;20198;-70
2022/12/18 05:21:58;;;;;;;8.53;7.77;;;;;;;9.95;100.00;100363.44;4993496;28;20190;-70
2022/12/18 05:24:26;;;;;;;8.60;7.87;;;;;;;9.95;100.00;100371.41;4993000;28;20198;-70
2022/12/18 05:26:53;;;;;;;8.37;7.63;;;;;;;10.07;100.00;100372.72;4993453;28;20218;-70
2022/12/18 05:29:19;;;;;;;9.73;8.87;;;;;;;10.07;100.00;100377.19;4992786;28;20194;-71
2022/12/18 05:31:46;;;;;;;10.43;8.20;;;;;;;10.07;100.00;100385.16;4993009;28;20725;-70
2022/12/18 05:34:13;;;;;;;8.40;7.67;;;;;;;10.04;100.00;100396.06;4993212;28;20194;-70
2022/12/18 05:36:40;;;;;;;13.67;7.97;;;;;;;10.03;100.00;100399.72;4993102;28;20202;-70
2022/12/18 05:39:07;;;;;;;9.20;8.33;;;;;;;10.13;100.00;100395.13;4993283;28;20198;-71
2022/12/18 05:41:35;;;;;;;8.63;7.83;;;;;;;10.07;100.00;100396.63;4992827;28;20285;-70
2022/12/18 05:44:01;;;;;;;15.80;8.93;;;;;;;10.05;100.00;100403.91;4992980;28;20245;-70
2022/12/18 05:46:29;;;;;;;8.87;7.80;;;;;;;10.08;100.00;100411.53;4992649;28;20199;-70
2022/12/18 05:48:56;;;;;;;8.37;7.53;;;;;;;10.13;100.00;100416.34;4993049;28;20190;-71
2022/12/18 05:51:23;;;;;;;8.43;7.73;;;;;;;10.17;100.00;100417.66;4992631;28;20257;-70
2022/12/18 05:53:50;;;;;;;7.17;6.47;;;;;;;10.02;100.00;100420.16;4992879;28;20281;-71
2022/12/18 05:56:19;;;;;;;9.13;7.60;;;;;;;9.97;100.00;100426.97;4992964;28;20647;-71
2022/12/18 05:58:48;;;;;;;7.80;7.10;;;;;;;10.01;100.00;100428.28;4993008;28;20199;-71
2022/12/18 06:01:17;;;;;;;7.17;6.67;;;;;;;10.02;100.00;100435.25;4992197;28;20221;-70
2022/12/18 06:03:44;;;;;;;7.03;6.47;;;;;;;9.99;100.00;100440.88;4992490;28;20234;-70
2022/12/18 06:06:15;;;;;;;7.67;6.93;;;;;;;9.94;100.00;100436.09;4992519;28;20202;-68
2022/12/18 06:08:42;;;;;;;7.63;7.03;;;;;;;9.95;100.00;100434.25;4992319;28;20211;-69
2022/12/18 06:11:09;;;;;;;8.47;7.10;;;;;;;10.02;100.00;100440.56;4992823;28;20249;-69
2022/12/18 06:13:36;;;;;;;8.13;7.33;;;;;;;10.08;100.00;100440.72;4992352;28;20659;-71
2022/12/18 06:16:05;;;;;;;7.03;6.43;;;;;;;10.15;100.00;100446.19;4992718;28;20257;-70
2022/12/18 06:18:31;;;;;;;7.60;7.00;;;;;;;10.17;100.00;100449.53;4992349;28;20755;-70
2022/12/18 06:21:00;;;;;;;8.10;7.30;;;;;;;10.15;100.00;100454.16;4992412;28;20280;-71
2022/12/18 06:23:27;;;;;;;7.33;6.73;;;;;;;10.07;100.00;100446.22;4992603;28;20198;-70
2022/12/18 06:25:54;;;;;;;11.13;7.90;;;;;;;10.14;100.00;100460.47;4988475;28;20581;-71
2022/12/18 06:28:21;;;;;;;8.00;7.00;;;;;;;10.23;100.00;100459.44;4991257;28;20715;-72
2022/12/18 06:30:49;;;;;;;7.03;6.53;;;;;;;10.13;100.00;100458.81;4991565;28;20546;-77
2022/12/18 06:33:17;;;;;;;7.63;6.93;;;;;;;10.12;100.00;100473.06;4991701;28;20195;-73
2022/12/18 06:35:44;;;;;;;9.43;7.50;;;;;;;10.30;100.00;100477.19;4974280;28;20195;-73
2022/12/18 06:38:10;;;;;;;7.90;7.20;;;;;;;10.34;100.00;100483.00;4991470;28;20756;-72
2022/12/18 06:40:38;;;;;;;9.17;7.73;;;;;;;10.36;100.00;100486.28;4990933;28;20195;-73
2022/12/18 06:43:05;;;;;;;7.70;6.93;;;;;;;10.43;100.00;100492.59;4992011;28;20233;-72
2022/12/18 06:45:32;;;;;;;8.57;7.73;;;;;;;10.45;100.00;100498.53;4991898;28;20634;-73
2022/12/18 06:47:58;;;;;;;7.43;6.83;;;;;;;10.38;100.00;100501.06;4991781;28;20706;-72
2022/12/18 06:50:27;;;;;;;7.77;7.03;;;;;;;10.37;100.00;100509.19;4992140;28;20190;-73
2022/12/18 06:52:53;;;;;;;7.17;6.57;;;;;;;10.34;100.00;100509.56;4992166;28;20190;-72
2022/12/18 06:55:20;;;;;;;6.80;6.30;;;;;;;10.33;99.52;100508.72;4992183;28;20241;-72
2022/12/18 06:57:47;;;;;;;10.20;7.13;;;;;;;10.40;99.37;100519.47;4991840;28;20671;-72
2022/12/18 07:00:14;;;;;;;8.17;7.47;;;;;;;10.49;99.18;100523.75;4992070;28;20272;-73
2022/12/18 07:02:41;;;;;;;8.23;7.37;;;;;;;10.47;98.88;100525.78;4992167;28;20195;-72
2022/12/18 07:05:08;;;;;;;7.37;6.80;;;;;;;10.43;99.40;100529.78;4991821;28;20648;-73
2022/12/18 07:07:36;;;;;;;9.00;6.80;;;;;;;10.48;99.05;100528.28;4991880;28;20261;-73
2022/12/18 07:10:03;;;;;;;8.20;7.50;;;;;;;10.48;99.10;100527.44;4994922;28;20201;-72
2022/12/18 07:12:30;;;;;;;10.33;8.20;;;;;;;10.61;99.27;100535.69;4995500;28;20198;-72
2022/12/18 07:14:57;;;;;;;7.90;7.20;;;;;;;10.64;97.54;100543.31;4994965;28;20206;-73
2022/12/18 07:17:23;;;;;;;9.33;7.87;;;;;;;10.66;97.22;100544.00;4995282;28;20239;-72
2022/12/18 07:19:50;;;;;;;6.67;6.23;;;;;;;10.62;96.05;100540.84;4994903;28;20232;-73
2022/12/18 07:22:17;;;;;;;7.83;7.03;;;;;;;10.63;95.79;100547.00;4995417;28;20261;-73
2022/12/18 07:24:45;;;;;;;7.50;6.90;;;;;;;10.61;96.00;100544.50;4995072;28;20230;-73
2022/12/18 07:27:15;;;;;;;6.97;6.27;;;;;;;10.68;95.42;100549.97;5006043;28;20300;-72
2022/12/18 07:29:42;;;;;;;9.80;7.77;;;;;;;10.72;94.97;100556.59;5006376;28;20198;-73
2022/12/18 07:32:08;;;;;;;6.97;6.47;;;;;;;10.69;94.79;100556.91;4994917;28;20661;-72
2022/12/18 07:34:35;;;;;;;10.03;8.93;;;;;;;10.68;94.76;100565.91;4994766;28;20632;-72
2022/12/18 07:37:02;;;;;;;8.53;7.57;;;;;;;10.61;94.19;100560.44;4995072;28;20256;-73
2022/12/18 07:39:29;;;;;;;8.70;7.80;;;;;;;10.61;93.70;100567.56;4994986;28;20253;-73
2022/12/18 07:44:41;;;;;;;8.00;7.30;;;;;;;10.68;93.14;100571.22;4995059;28;20305;-72
2022/12/18 07:47:08;;;;;;;7.93;7.13;;;;;;;10.53;92.64;100565.78;4994925;28;20261;-72
2022/12/18 07:49:35;;;;;;;6.70;6.00;;;;;;;10.48;93.00;100569.94;4994815;28;20202;-72
2022/12/18 07:52:01;;;;;;;11.40;10.33;;;;;;;10.38;93.13;100579.91;4994810;28;20191;-72
2022/12/18 07:54:28;;;;;;;11.23;9.37;;;;;;;10.33;93.43;100571.59;4994657;28;20244;-72
2022/12/18 07:56:55;;;;;;;10.03;9.13;;;;;;;10.29;92.77;100578.25;4994207;28;20249;-72
2022/12/18 07:59:23;;;;;;;10.60;8.47;;;;;;;10.37;92.34;100589.69;4994293;28;20209;-72
2022/12/18 08:01:50;;;;;;;8.93;8.07;;;;;;;10.42;92.41;100587.38;4994341;28;20257;-72
2022/12/18 08:04:16;;;;;;;10.30;9.30;;;;;;;10.41;92.09;100591.03;4994068;28;20222;-71
2022/12/18 08:06:43;;;;;;;12.90;8.67;;;;;;;10.51;91.92;100598.81;4994584;28;20199;-71
2022/12/18 08:09:11;;;;;;;10.53;8.03;;;;;;;10.48;91.89;100612.44;4993887;28;20219;-71
2022/12/18 08:11:37;;;;;;;11.20;9.83;;;;;;;10.58;92.36;100591.84;4993724;28;20633;-71
2022/12/18 08:14:04;;;;;;;10.43;9.23;;;;;;;10.71;91.43;100610.75;4994445;28;20348;-71
2022/12/18 08:16:32;;;;;;;10.97;9.50;;;;;;;10.71;91.48;100613.41;4994042;28;20667;-71
2022/12/18 08:18:59;;;;;;;12.80;8.67;;;;;;;10.82;91.10;100613.03;4994225;28;20199;-72
2022/12/18 08:21:28;;;;;;;14.10;8.93;;;;;;;10.85;89.57;100625.97;4993358;28;20234;-72
2022/12/18 08:23:56;;;;;;;9.70;7.77;;;;;;;10.90;89.70;100628.94;4994321;28;20202;-72
2022/12/18 08:26:25;;;;;;;9.83;7.97;;;;;;;10.88;89.50;100626.50;4993739;28;20552;-72
2022/12/18 08:28:52;;;;;;;11.33;8.20;;;;;;;10.96;89.13;100634.41;4993954;28;20219;-72
2022/12/18 08:31:19;;;;;;;11.43;9.00;;;;;;;11.02;88.96;100632.09;4993716;28;20199;-72
2022/12/18 08:33:49;;;;;;;9.50;8.60;;;;;;;11.01;88.85;100636.56;4993577;28;20734;-72
2022/12/18 08:36:16;;;;;;;9.43;8.53;;;;;;;11.04;88.53;100622.94;4993426;28;20245;-72
2022/12/18 08:38:43;;;;;;;8.13;7.33;;;;;;;10.98;88.38;100626.25;4993870;28;20293;-72
2022/12/18 08:41:12;;;;;;;9.20;8.07;;;;;;;11.08;88.10;100632.25;4993817;28;20257;-72
2022/12/18 08:46:25;;;;;;;11.10;8.00;;;;;;;10.99;88.02;100617.31;4993380;28;20677;-72
2022/12/18 08:48:55;;;;;;;8.07;6.93;;;;;;;11.05;87.80;100627.25;4993191;28;20706;-72
2022/12/18 08:51:21;;;;;;;9.90;8.70;;;;;;;11.13;87.23;100613.94;4993480;28;20260;-71
2022/12/18 08:53:48;;;;;;;7.70;6.97;;;;;;;11.02;87.33;100619.59;4993416;28;20586;-72
2022/12/18 08:56:15;;;;;;;14.87;6.97;;;;;;;11.03;86.81;100618.63;4992898;28;20203;-72
2022/12/18 08:58:42;;;;;;;8.23;6.20;;;;;;;10.91;87.40;100615.50;4992918;28;20262;-72
2022/12/18 09:01:13;;;;;;;7.20;6.53;;;;;;;11.00;87.75;100613.66;4992862;28;20736;-72
2022/12/18 09:03:40;;;;;;;9.87;7.90;;;;;;;11.03;87.71;100602.69;4993024;28;20191;-72
2022/12/18 09:06:08;;;;;;;8.87;7.97;;;;;;;11.04;87.63;100605.13;4992760;28;20230;-72
2022/12/18 09:08:36;;;;;;;9.63;7.87;;;;;;;11.13;87.33;100608.59;4992712;28;20268;-71
2022/12/18 09:11:03;;;;;;;7.93;7.30;;;;;;;11.07;87.77;100614.63;4993105;28;20202;-72
2022/12/18 09:13:29;;;;;;;9.50;6.93;;;;;;;11.14;86.93;100620.09;4992669;28;20198;-72
2022/12/18 09:15:56;;;;;;;9.23;7.90;;;;;;;11.27;86.73;100621.16;4992618;28;20190;-72
2022/12/18 09:18:24;;;;;;;8.07;7.03;;;;;;;11.29;86.34;100608.53;4992886;28;20638;-71
2022/12/18 09:20:52;;;;;;;9.43;8.43;;;;;;;11.32;85.79;100618.84;4992777;28;20232;-71
2022/12/18 09:23:21;;;;;;;8.77;7.93;;;;;;;11.31;84.71;100616.34;4992594;28;20206;-72
2022/12/18 09:25:48;;;;;;;8.67;7.67;;;;;;;11.27;85.31;100621.16;4992798;28;20194;-71
2022/12/18 09:28:16;;;;;;;7.87;7.13;;;;;;;11.26;84.83;100619.53;4992597;28;20290;-71
2022/12/18 09:30:47;;;;;;;11.47;7.07;;;;;;;11.26;84.90;100622.19;4992230;28;20193;-72
2022/12/18 09:33:14;;;;;;;8.13;7.40;;;;;;;11.23;84.88;100625.19;4992479;28;20191;-72
2022/12/18 09:35:42;;;;;;;8.40;7.50;;;;;;;11.30;85.20;100620.84;4992734;28;20199;-72
2022/12/18 09:38:12;;;;;;;10.80;9.77;;;;;;;11.38;84.50;100623.47;4992207;28;20268;-72
2022/12/18 09:40:44;;;;;;;9.93;8.60;;;;;;;11.40;84.55;100620.63;4992259;28;20544;-72
2022/12/18 09:43:18;;;;;;;11.03;8.30;;;;;;;11.44;84.73;100625.44;4992378;28;20247;-71
2022/12/18 09:45:49;;;;;;;12.90;8.90;;;;;;;11.47;84.58;100626.91;4992586;28;20243;-72
2022/12/18 09:48:23;;;;;;;14.10;7.87;;;;;;;11.41;84.66;100619.63;4992376;28;20296;-72
2022/12/18 09:50:51;;;;;;;10.43;7.70;;;;;;;11.41;84.09;100616.97;4992141;28;20250;-72
2022/12/18 09:53:22;;;;;;;9.57;7.67;;;;;;;11.29;84.37;100621.84;4992484;28;20199;-71
2022/12/18 09:55:52;;;;;;;7.50;6.83;;;;;;;11.25;84.57;100631.16;4992679;28;20191;-72
2022/12/18 09:58:28;;;;;;;8.73;8.03;;;;;;;11.22;85.11;100628.84;4992495;28;20190;-72
2022/12/18 10:00:55;;;;;;;8.27;7.47;;;;;;;11.30;84.95;100626.16;4992465;28;20186;-72
2022/12/18 10:03:22;;;;;;;7.70;7.07;;;;;;;11.33;85.42;100623.16;4992076;28;20694;-71
2022/12/18 10:06:05;;;;;;;17.83;8.23;;;;;;;11.39;85.15;100617.13;4992234;28;20267;-72
2022/12/18 10:08:41;;;;;;;8.60;7.80;;;;;;;11.33;85.24;100620.50;4992135;28;20258;-72
2022/12/18 10:11:25;;;;;;;9.30;8.40;;;;;;;11.34;85.27;100627.47;4992213;28;20618;-71
2022/12/18 10:13:56;;;;;;;8.83;7.93;;;;;;;11.35;84.18;100623.00;4992382;28;20194;-71
2022/12/18 10:16:35;;;;;;;9.70;8.73;;;;;;;11.28;84.23;100625.50;4992313;28;20269;-71
2022/12/18 10:19:17;;;;;;;9.27;7.97;;;;;;;11.17;84.31;100615.25;4991721;28;20190;-72
2022/12/18 10:21:52;;;;;;;8.30;7.60;;;;;;;11.20;84.70;100620.22;4991975;28;20281;-71
2022/12/18 10:24:25;;;;;;;11.17;7.50;;;;;;;11.28;84.33;100619.34;4991891;28;20233;-72
2022/12/18 10:26:57;;;;;;;9.50;8.70;;;;;;;11.25;84.16;100628.50;4992170;28;20249;-72
2022/12/18 10:29:25;;;;;;;9.93;8.93;;;;;;;11.24;84.19;100626.84;4993604;28;20668;-71
2022/12/18 10:31:52;;;;;;;9.10;8.30;;;;;;;11.13;84.37;100619.25;4992031;28;20264;-72
2022/12/18 10:34:19;;;;;;;11.70;9.57;;;;;;;11.20;85.09;100617.56;4991643;28;20214;-72
2022/12/18 10:36:45;;;;;;;11.13;9.87;;;;;;;11.17;85.49;100620.56;4991999;28;20249;-72
2022/12/18 10:39:17;;;;;;;8.87;8.00;;;;;;;11.11;86.25;100621.22;4992079;28;20202;-72
2022/12/18 10:41:44;;;;;;;10.00;8.97;;;;;;;11.07;85.76;100624.41;4992362;28;20187;-72
2022/12/18 10:44:17;;;;;;;10.10;8.70;;;;;;;11.07;84.88;100625.25;4993460;28;20667;-71
2022/12/18 10:46:45;;;;;;;11.23;10.03;;;;;;;11.07;84.72;100630.59;4995805;28;20755;-72
2022/12/18 10:49:24;;;;;;;10.30;9.30;;;;;;;11.21;84.92;100640.50;4995795;28;20226;-72
2022/12/18 10:51:52;;;;;;;18.73;9.80;;;;;;;11.22;84.69;100636.81;4995851;28;20199;-72
2022/12/18 10:54:23;;;;;;;12.53;8.37;;;;;;;11.25;84.94;100639.16;4995698;28;20633;-72
2022/12/18 10:56:50;;;;;;;15.30;10.67;;;;;;;11.14;85.61;100641.34;4995491;28;20701;-72
2022/12/18 10:59:19;;;;;;;10.60;8.57;;;;;;;11.11;85.83;100634.53;4995353;28;20208;-72
2022/12/18 11:01:48;;;;;;;12.33;9.53;;;;;;;11.19;86.60;100647.78;4995566;28;20202;-72
2022/12/18 11:04:19;;;;;;;8.97;8.07;;;;;;;11.25;86.42;100655.09;4995957;28;20218;-71
2022/12/18 11:06:55;;;;;;;11.27;9.23;;;;;;;11.13;87.05;100651.16;4995295;28;20281;-72
2022/12/18 11:09:24;;;;;;;10.13;8.83;;;;;;;11.18;87.81;100653.31;4995143;28;20782;-72
2022/12/18 11:11:53;;;;;;;10.77;9.60;;;;;;;11.22;88.01;100659.94;4995154;28;20191;-71
2022/12/18 11:14:24;;;;;;;10.87;9.70;;;;;;;11.11;87.94;100661.13;4995531;28;20201;-72
2022/12/18 11:16:52;;;;;;;11.30;10.20;;;;;;;11.08;87.88;100670.28;4995105;28;20191;-72
2022/12/18 11:19:30;;;;;;;10.70;9.60;;;;;;;11.03;87.45;100677.94;4994998;28;20741;-72
2022/12/18 11:21:57;;;;;;;11.10;9.97;;;;;;;10.95;87.50;100679.81;4995600;28;20189;-72
2022/12/18 11:24:28;;;;;;;8.97;7.73;;;;;;;10.98;88.16;100674.97;4995243;28;20199;-73
2022/12/18 11:26:55;;;;;;;11.53;9.90;;;;;;;10.90;88.47;100672.31;4994897;28;20262;-73
2022/12/18 11:29:31;;;;;;;12.20;8.73;;;;;;;10.91;88.90;100665.19;5006534;28;20279;-72